Norrköping, Sweden

08:24 AM CET on December 13, 2017 (GMT +0100)
Unnamed Road | | Change Station

Elev 0 ft 58.48 °N, 16.44 °E | Updated 3 minutes ago

Snö
Snö
29.3 °F
Feels Like 29 °F
N
1.2
Vind Växlande Vind from S/SV
Gusts 3.1 miles/tim

Idag
High -- | Low -- °F
--% Chance of Precip.
Yesterday
High -- | Low -- °F
Precip. -- tum
Lufttryck 29.44 tum
Sikt 0.7 miles
Molnigt Mestadels molnigt 200 ft
Mestadels molnigt 1500 ft
Vindavkylning 29 °F
Daggpunkt 25 °F
Luftfuktighet 84%
Rainfall 0.00 tum
Snow Depth Not available.
8:35 AM 3:01 PM
Fjärde kvarteret, 21% visible
METAR ESSP 130650Z 19003KT 1100 R09/P1500N R27/P1500N -SN BKN002 BKN015 M01/M01 Q0997 R27/720156
Lufttryck 29.44 tum
Sikt 0.7 miles
Molnigt Mestadels molnigt 200 ft
Mestadels molnigt 1500 ft
Vindavkylning 29 °F
Daggpunkt 25 °F
Luftfuktighet 84%
Rainfall 0.00 tum
Snow Depth Not available.
8:35 AM 3:01 PM
Fjärde kvarteret, 21% visible
METAR ESSP 130650Z 19003KT 1100 R09/P1500N R27/P1500N -SN BKN002 BKN015 M01/M01 Q0997 R27/720156

Get Severe Weather Alerts

Thanks for signing up!

Be on the lookout for a verification email in your inbox.

You'll start receiving the daily forecast at 6 AM.

×

10-Day Weather Forecast

×

Almanac

Astronomi

Dec. 13, 2017 Rise Set
Actual Time
Civil Twilight
Nautical Twilight
Astronomical Twilight
Månen
Length Of Visible Light
Dagens längd
Tomorrow will be .
, % of the Moon is Illuminated

Today's Extremes

Country Highs Country Lows

Community

WunderPhotos

Category 6

Welcome to Category 6. This is the collective home for Weather Underground's featured writeups by Dr. Jeff Masters (right), Bob Henson (left), Chris Burt, and other regular contributors.

Nearby

Air Quality

  Air Quality AQ Index Pollutant
Not available.

Snödjup

Station Depth Elevation

Earthquake Activity

Stad Distance Mag. Time & Date
Minimum magnitude displayed is 2.5.

Coastal Water Temperatures

Plats Temperatur

Stations

Nearby Weather Stations

Station Location Temp Vindavkylning Daggpunkt Luftfuktighet Vind Precip. Elev Uppdaterad Type